89th Latvian Swimming ChampionshipsLong Course (50m)
Riga (LAT)31 May - 2 Jun 2013
Women, 100m Freestyle, Final,  Open
Women, 100m Freestyle, Prelim,  Open
100m Freestyle - Women, 4 x 100m Freestyle, Timed Final,  Open
Women, 100m Freestyle, Final,  Open2 Jun 2013 - 17:35TimePts.
1.NIKITINA, Gabriela1994LATBJSS Ridzene-ZIEP57.73733
2.GROSSMANN, Tess1994ESTEstonia58.94689
3.SILINA, Sindija1995LATValmieras BSS59.62665
4.RAUDONYTE, Simona1995LTULithuania59.83658
5.PAESLANE, Diana1997ESTEstonia1:01.97592
6.BAIKOVA, Arina2000LATJurmalas SS1:02.15587
7.JANKOVSKA, Gundega1995LATJelgavas SPS1:02.40580
8.DAKSE, Darta Eleonora1997LATBJSS Ridzene-ZIEP1:03.32555
9.SKURBA, Sinta1994LATBJSS Ridzene-ZIEP1:04.07536
10.RIBAKOVA, Aleksandra1998LATSK Delfins1:04.22532
11.JASINOVICA, Odrija1999LATJurmalas SS1:04.25531
12.ZLOBINA, Valerija1999LATBJSS Ridzene-DSN1:04.56524
13.KRUSKOPA, Ieva1995LATValmieras BSS1:04.82518
14.ROZENFELDE, Eva1999LATValmieras BSS1:06.14487
15.TIMERMANE, Diana1996LATJelgavas SPS1:06.25485
16.VULFA, Renate1999LATBJSS Ridzene-OSC1:07.15465
Women, 100m Freestyle, Prelim,  Open2 Jun 2013 - 9:50TimePts.
1.NIKITINA, Gabriela1994LATBJSS Ridzene-ZIEP58.19716
2.SILINA, Sindija1995LATValmieras BSS1:00.22646
3.GROSSMANN, Tess1994ESTEstonia1:00.55635
4.RAUDONYTE, Simona1995LTULithuania1:01.78598
5.BAIKOVA, Arina2000LATJurmalas SS1:02.43579
6.PAESLANE, Diana1997ESTEstonia1:02.52577
7.DAKSE, Darta Eleonora1997LATBJSS Ridzene-ZIEP1:03.02563
8.JANKOVSKA, Gundega1995LATJelgavas SPS1:03.77544
9.JASINOVICA, Odrija1999LATJurmalas SS1:03.98538
10.RIBAKOVA, Aleksandra1998LATSK Delfins1:04.25531
11.SKURBA, Sinta1994LATBJSS Ridzene-ZIEP1:04.48526
12.ZLOBINA, Valerija1999LATBJSS Ridzene-DSN1:05.18509
13.KRUSKOPA, Ieva1995LATValmieras BSS1:05.53501
14.ROZENFELDE, Eva1999LATValmieras BSS1:05.62499
15.TIMERMANE, Diana1996LATJelgavas SPS1:06.46480
16.VULFA, Renate1999LATBJSS Ridzene-OSC1:06.73474
17.SUNEPA, Smaida1996LATBJSS Ridzene-ZOL1:06.83472
18.SALAJEVA, Anastasija2000LATSK Delfins1:06.87471
19.FEDORENKO, Jelena1996LATSK Delfins1:07.06467
20.KULIKOVA, Karolina2000LATLiepajas KSS-EZER1:07.38461
21.LISJUKA, Oksana1999LATBJSS Ridzene-ZIEP1:07.45459
22.POKSANE, Alise1998LATBJSS Ridzene-DSN1:07.63456
23.ZAKE, Elina Sanda1997LATBJSS Ridzene-ZIEP1:07.72454
24.VASILEENKO, Anastasija2000LATLiepajas KSS-EZER1:07.97449
25.PAHOMOVA, Lidija1997LATJurmalas SS1:08.67435
26.DANILENKO, Viktorija1997LATBJSS Ridzene-OSC1:08.88431
27.KRAVCENKO, Anastasija1999LATBJSS Ridzene-DSN1:09.21425
28.OSOKINA, Aleksandra1999LATBJSS Ridzene-DSN1:09.26424
29.MASKAVA, Kristiana2001LATBJSS Ridzene-DSN1:09.41421
30.PASUKA, Alise1999LATLiepajas KSS-EZER1:09.46421
31.GEDROVICA, Viktorija2000LATJelgavas SPS1:09.60418
32.SKARSTANE, Alika1999LATBJSS Ridzene-ZOL1:09.98411
33.KALNISKE, Selina1998LATJelgavas SPS1:10.05410
33.MAURINA, Katrina1995LATBJSS Ridzene-ZOL1:10.05410
35.KOVTUNA, Elizabete1998LATJelgavas SPS1:10.16408
36.EMBREKTE, Zane1996LATRigas Kipsalas PK1:10.35405
37.VERETENNIKOVA, Viktorija1998LATBJSS Ridzene-DSN1:10.43403
38.PROHOROVA, Natalija1996LATBJSS Ridzene-ZIEP1:10.54401
39.BLAZEVICA, Anna2000LATSK Delfins1:10.62400
40.GRABUZA, Dagnija1999LATJelgavas SPS1:11.50386
41.PANKRATOVA, Veronika2000LATRigas pilseta1:12.40371
42.GOBERGA, Marija2002LATJekabpils SC1:14.36343
43.MONSTVILAITE, Alina2000LATSK Delfins1:14.62339
44.ANDROSCUKA, Violeta2000LATLiepajas KSS-EZER1:15.51327
45.KUZMICKA, Valerija1999LATLiepajas KSS-EZER1:15.76324
46.FRANOVA, Elvira2000LATDaugavpils pilseta1:16.10320
100m Freestyle - Women, 4 x 100m Freestyle, Timed Final,  Open31 May 2013 - 18:25TimePts.
RelayRIBAKOVA, Alona1991LATSK Delfins59.04685
RelayAIZPURIETE, Evelina1994LATBJSS Ridzene-OSC1:01.14617
RelaySILINA, Sindija1995LATValmieras BSS1:01.38610
RelayBAIKOVA, Arina2000LATJurmalas SS1:03.11561
RelayJANKOVSKA, Gundega1995LATJelgavas SPS1:05.47502
RelayKALNINA, Kristiana1999LATJelgavas SPS1:08.87431